Time;durP1;ratioP1;P1;durP2;ratioP2;P2;SDS_P1;SDS_P2;PMS_P1;PMS_P2;Temp;Humidity;BMP_temperature;BMP_pressure;BME280_temperature;BME280_humidity;BME280_pressure;Samples;Min_cycle;Max_cycle;Signal;HPM_P1;HPM_P2
2022/04/26 03:37:19;;;;;;;25.60;23.00;;;9.60;99.90;;;;;;5134313;27;20206;-70
2022/04/26 03:39:46;;;;;;;25.98;23.27;;;9.60;99.90;;;;;;5134104;27;20293;-70
2022/04/26 03:42:13;;;;;;;25.45;22.63;;;9.60;99.90;;;;;;5134578;27;20226;-71
2022/04/26 03:44:40;;;;;;;28.50;23.88;;;9.60;99.90;;;;;;5134128;27;20571;-70
2022/04/26 03:47:07;;;;;;;27.30;24.13;;;9.50;99.90;;;;;;5134295;27;20246;-70
2022/04/26 03:49:34;;;;;;;26.98;23.70;;;9.50;99.90;;;;;;5134105;28;20197;-70
2022/04/26 03:52:01;;;;;;;30.20;25.70;;;9.50;99.90;;;;;;5134083;27;20209;-71
2022/04/26 03:54:27;;;;;;;32.00;24.98;;;9.50;99.90;;;;;;5133754;28;20201;-71
2022/04/26 03:56:54;;;;;;;28.65;24.13;;;9.50;99.90;;;;;;5134195;28;20253;-71
2022/04/26 03:59:20;;;;;;;30.63;25.60;;;9.50;99.90;;;;;;5134168;28;20621;-71
2022/04/26 04:01:47;;;;;;;32.20;26.70;;;9.50;99.90;;;;;;5133724;28;20757;-72
2022/04/26 04:04:14;;;;;;;32.92;28.23;;;9.40;99.90;;;;;;5134491;28;20258;-71
2022/04/26 04:06:41;;;;;;;33.10;27.52;;;9.40;99.90;;;;;;5134382;27;20222;-71
2022/04/26 04:09:07;;;;;;;33.20;25.42;;;9.50;99.90;;;;;;5133525;28;20229;-71
2022/04/26 04:11:34;;;;;;;30.50;25.27;;;9.50;99.90;;;;;;5135510;27;20202;-71
2022/04/26 04:14:00;;;;;;;35.10;27.27;;;9.40;99.90;;;;;;5138986;27;20197;-71
2022/04/26 04:16:27;;;;;;;36.50;28.63;;;9.40;99.90;;;;;;5138867;27;20270;-71
2022/04/26 04:21:38;;;;;;;36.67;29.20;;;9.40;99.90;;;;;;5138473;27;20216;-71
2022/04/26 04:24:05;;;;;;;29.67;25.73;;;9.40;99.90;;;;;;5138386;27;20194;-71
2022/04/26 04:26:31;;;;;;;38.75;29.05;;;9.40;99.90;;;;;;5138674;27;20570;-71
2022/04/26 04:28:58;;;;;;;30.50;25.85;;;9.40;99.90;;;;;;5138198;27;20194;-71
2022/04/26 04:31:24;;;;;;;32.17;26.30;;;9.50;99.90;;;;;;5138017;27;20567;-72
2022/04/26 04:33:51;;;;;;;32.95;28.45;;;9.50;99.90;;;;;;5137787;27;20206;-71
2022/04/26 04:36:17;;;;;;;30.85;27.27;;;9.50;99.90;;;;;;5137975;27;20209;-71
2022/04/26 04:38:43;;;;;;;29.65;26.48;;;9.60;99.90;;;;;;5137853;27;20201;-71
2022/04/26 04:41:10;;;;;;;26.98;24.08;;;9.60;99.90;;;;;;5137565;27;20274;-71
2022/04/26 04:43:36;;;;;;;26.33;23.42;;;9.60;99.90;;;;;;5118867;27;20205;-71
2022/04/26 04:46:03;;;;;;;26.83;23.60;;;9.60;99.90;;;;;;5137630;27;20202;-71
2022/04/26 04:48:30;;;;;;;30.33;22.40;;;9.60;99.90;;;;;;5137767;27;20274;-71
2022/04/26 04:50:56;;;;;;;26.40;23.38;;;9.50;99.90;;;;;;5137557;27;20626;-71
2022/04/26 04:53:23;;;;;;;27.73;24.63;;;9.50;99.90;;;;;;5137661;27;20202;-71
2022/04/26 04:55:49;;;;;;;26.27;23.58;;;9.50;99.90;;;;;;5137196;27;20202;-71
2022/04/26 04:58:16;;;;;;;27.95;24.10;;;9.60;99.90;;;;;;5137792;27;20216;-71
2022/04/26 05:00:42;;;;;;;27.60;24.67;;;9.60;99.90;;;;;;5118608;27;20254;-72
2022/04/26 05:03:09;;;;;;;26.27;23.55;;;9.60;99.90;;;;;;5137351;27;20194;-71
2022/04/26 05:05:35;;;;;;;27.27;24.35;;;9.60;99.90;;;;;;5118761;27;20271;-72
2022/04/26 05:08:02;;;;;;;26.58;23.40;;;9.60;99.90;;;;;;5136649;27;20189;-71
2022/04/26 05:10:33;;;;;;;26.23;23.45;;;9.60;99.90;;;;;;5136864;27;20202;-71
2022/04/26 05:12:59;;;;;;;28.50;25.42;;;9.60;99.90;;;;;;5136632;27;20216;-69
2022/04/26 05:15:26;;;;;;;27.92;24.98;;;9.60;99.90;;;;;;5137188;27;20210;-71
2022/04/26 05:17:52;;;;;;;30.83;24.05;;;9.60;99.90;;;;;;5136525;27;20770;-70
2022/04/26 05:20:19;;;;;;;27.45;24.55;;;9.50;99.90;;;;;;5136758;27;20206;-70
2022/04/26 05:25:40;;;;;;;28.55;24.45;;;9.50;99.90;;;;;;5136551;27;20246;-71
2022/04/26 05:28:07;;;;;;;26.35;23.23;;;9.60;99.90;;;;;;5135725;27;20695;-70
2022/04/26 05:30:33;;;;;;;27.48;24.52;;;9.60;99.90;;;;;;5136358;27;20621;-70
2022/04/26 05:33:00;;;;;;;27.52;24.50;;;9.60;99.90;;;;;;5136758;27;20206;-70
2022/04/26 05:35:26;;;;;;;26.10;23.33;;;9.70;99.90;;;;;;5136477;27;20197;-70
2022/04/26 05:37:53;;;;;;;27.10;22.88;;;9.80;99.90;;;;;;5135984;27;20262;-71
2022/04/26 05:40:19;;;;;;;42.55;29.40;;;9.70;99.90;;;;;;5136452;27;20201;-70
2022/04/26 05:42:45;;;;;;;25.63;22.98;;;9.80;99.90;;;;;;5136074;27;20732;-71
2022/04/26 05:45:12;;;;;;;24.48;21.98;;;9.80;99.90;;;;;;5117697;27;20653;-69
2022/04/26 05:47:43;;;;;;;24.40;21.70;;;10.00;99.90;;;;;;5117716;27;20235;-69
2022/04/26 05:50:10;;;;;;;21.10;19.02;;;10.00;99.90;;;;;;5136214;27;20198;-69
2022/04/26 05:52:37;;;;;;;20.63;18.42;;;9.90;99.90;;;;;;5135906;27;20593;-69
2022/04/26 05:55:07;;;;;;;21.73;18.98;;;9.90;99.90;;;;;;5136222;27;20657;-69
2022/04/26 05:57:37;;;;;;;21.42;19.30;;;10.00;99.90;;;;;;5135838;27;20198;-69
2022/04/26 06:00:05;;;;;;;22.42;20.05;;;10.00;99.90;;;;;;5135995;27;20205;-71
2022/04/26 06:02:32;;;;;;;21.73;19.52;;;10.00;99.90;;;;;;5135893;27;20228;-71
2022/04/26 06:04:58;;;;;;;20.27;18.27;;;10.20;99.90;;;;;;5135636;27;20198;-71
2022/04/26 06:07:24;;;;;;;19.42;17.50;;;10.10;99.90;;;;;;5135773;27;20198;-70
2022/04/26 06:09:53;;;;;;;21.50;19.40;;;10.00;99.90;;;;;;5136958;27;20230;-70
2022/04/26 06:12:26;;;;;;;21.00;19.00;;;10.10;99.90;;;;;;5137403;27;20205;-70
2022/04/26 06:14:53;;;;;;;21.05;19.00;;;10.10;99.90;;;;;;5137403;27;20201;-70
2022/04/26 06:17:20;;;;;;;19.70;17.63;;;10.10;99.90;;;;;;5118000;27;20209;-70
2022/04/26 06:19:47;;;;;;;25.52;17.25;;;10.00;99.90;;;;;;5136336;27;20194;-70
2022/04/26 06:22:14;;;;;;;18.10;16.40;;;10.00;99.90;;;;;;5137571;27;20222;-70
2022/04/26 06:24:41;;;;;;;18.65;16.85;;;10.00;99.90;;;;;;5137141;27;20206;-70
2022/04/26 06:27:07;;;;;;;18.67;16.92;;;10.30;99.90;;;;;;5135890;27;20217;-71
2022/04/26 06:29:34;;;;;;;17.90;16.10;;;10.40;99.90;;;;;;5135506;27;20661;-71
2022/04/26 06:32:02;;;;;;;18.90;17.00;;;10.40;99.90;;;;;;5134790;27;20202;-71
2022/04/26 06:34:28;;;;;;;17.33;15.70;;;10.50;99.90;;;;;;5133637;27;20727;-71
2022/04/26 06:36:55;;;;;;;18.33;16.60;;;10.60;99.90;;;;;;5135244;27;20568;-71
2022/04/26 06:39:21;;;;;;;17.88;16.00;;;10.50;99.90;;;;;;5135542;27;20266;-71
2022/04/26 06:41:47;;;;;;;16.50;14.75;;;10.40;99.90;;;;;;5134997;27;20233;-71
2022/04/26 06:44:14;;;;;;;17.15;15.50;;;10.40;99.90;;;;;;5134754;27;20577;-71
2022/04/26 06:46:40;;;;;;;16.00;14.50;;;10.50;99.90;;;;;;5135461;27;20198;-71
2022/04/26 06:49:07;;;;;;;15.57;14.07;;;10.60;99.90;;;;;;5135381;27;20201;-71
2022/04/26 06:51:35;;;;;;;17.48;15.23;;;10.40;99.90;;;;;;5134597;27;20646;-71
2022/04/26 06:54:02;;;;;;;15.13;13.52;;;10.60;99.90;;;;;;5134698;27;20201;-71
2022/04/26 06:56:28;;;;;;;14.18;12.77;;;10.60;99.90;;;;;;5135456;27;20197;-71
2022/04/26 06:58:54;;;;;;;14.45;13.15;;;10.60;99.90;;;;;;5134527;27;20205;-71
2022/04/26 07:01:21;;;;;;;13.93;12.43;;;10.80;99.90;;;;;;5134668;27;20603;-71
2022/04/26 07:03:47;;;;;;;15.48;14.02;;;10.80;99.90;;;;;;5135219;27;20247;-71
2022/04/26 07:06:14;;;;;;;13.60;12.27;;;11.10;99.90;;;;;;5134694;27;20590;-70
2022/04/26 07:08:40;;;;;;;14.30;12.57;;;11.10;99.90;;;;;;5134954;27;20226;-71
2022/04/26 07:11:07;;;;;;;13.82;12.63;;;11.10;99.90;;;;;;5133923;27;20198;-71
2022/04/26 07:13:33;;;;;;;13.02;11.75;;;11.10;99.90;;;;;;5134538;27;20194;-71
2022/04/26 07:16:00;;;;;;;11.55;10.50;;;11.10;99.90;;;;;;5134684;27;20706;-71
2022/04/26 07:18:27;;;;;;;11.75;10.75;;;11.30;99.90;;;;;;5134547;27;20653;-71
2022/04/26 07:20:53;;;;;;;12.10;10.90;;;11.30;99.90;;;;;;5134766;27;20217;-71
2022/04/26 07:23:20;;;;;;;12.57;11.48;;;11.20;99.90;;;;;;5134595;27;20239;-71
2022/04/26 07:25:46;;;;;;;13.05;11.85;;;11.20;99.90;;;;;;5135489;27;20194;-71
2022/04/26 07:28:13;;;;;;;12.38;11.18;;;11.40;99.90;;;;;;5135714;27;20202;-71
2022/04/26 07:30:39;;;;;;;12.77;11.52;;;11.50;99.90;;;;;;5135689;27;20197;-71
2022/04/26 07:35:55;;;;;;;13.68;12.23;;;11.80;99.90;;;;;;5135624;27;20193;-71
2022/04/26 07:38:21;;;;;;;14.07;12.30;;;11.90;99.90;;;;;;5117274;27;20242;-72
2022/04/26 07:40:48;;;;;;;11.45;10.45;;;11.90;99.90;;;;;;5133409;27;20277;-72
2022/04/26 07:43:14;;;;;;;12.55;11.25;;;12.00;99.90;;;;;;5115869;27;20221;-71
2022/04/26 07:45:43;;;;;;;11.82;10.93;;;12.10;99.90;;;;;;5133982;27;20197;-71
2022/04/26 07:48:11;;;;;;;12.13;11.13;;;12.10;99.90;;;;;;5134069;27;20198;-71
2022/04/26 07:50:38;;;;;;;12.05;10.85;;;12.00;99.90;;;;;;5133540;27;20198;-71
2022/04/26 07:53:05;;;;;;;11.10;9.97;;;12.40;99.90;;;;;;5115409;28;20266;-71
2022/04/26 07:55:32;;;;;;;11.03;10.03;;;12.50;99.90;;;;;;5133963;28;20593;-71
2022/04/26 07:57:58;;;;;;;11.40;10.30;;;12.30;99.90;;;;;;5133695;28;20597;-71
2022/04/26 08:00:27;;;;;;;11.13;10.20;;;12.40;99.90;;;;;;5134472;28;20603;-72
2022/04/26 08:02:55;;;;;;;10.47;9.63;;;12.90;99.90;;;;;;5133389;28;20667;-71
2022/04/26 08:05:22;;;;;;;10.80;9.77;;;13.40;99.90;;;;;;5133414;27;20986;-71
2022/04/26 08:07:49;;;;;;;11.17;10.17;;;13.70;99.90;;;;;;5133370;28;20627;-70
2022/04/26 08:10:15;;;;;;;12.13;10.53;;;13.70;99.90;;;;;;5132943;28;20680;-70
2022/04/26 08:12:43;;;;;;;12.53;11.37;;;13.40;99.90;;;;;;5133207;28;21162;-71
2022/04/26 08:15:12;;;;;;;11.57;10.50;;;12.90;99.90;;;;;;5133674;28;20615;-71
2022/04/26 08:17:38;;;;;;;10.90;10.00;;;12.70;99.90;;;;;;5133311;28;21277;-70
2022/04/26 08:20:06;;;;;;;14.35;13.07;;;12.70;99.90;;;;;;5114910;28;20620;-70
2022/04/26 08:22:32;;;;;;;13.10;10.47;;;12.80;99.90;;;;;;5133356;28;20270;-71
2022/04/26 08:27:44;;;;;;;11.57;10.57;;;13.00;99.90;;;;;;5133787;28;20587;-70
2022/04/26 08:30:10;;;;;;;11.43;10.33;;;13.00;99.90;;;;;;5133376;28;20660;-71
2022/04/26 08:32:42;;;;;;;12.23;11.13;;;13.20;99.90;;;;;;5133565;28;20978;-71
2022/04/26 08:35:11;;;;;;;12.00;10.80;;;13.40;99.90;;;;;;5132970;28;20590;-71
2022/04/26 08:37:38;;;;;;;15.00;9.70;;;13.40;99.90;;;;;;5133253;28;20680;-70
2022/04/26 08:40:07;;;;;;;9.80;8.90;;;13.30;99.90;;;;;;5132988;28;21165;-71
2022/04/26 08:42:38;;;;;;;11.60;10.00;;;13.40;99.90;;;;;;5133095;28;20717;-71
2022/04/26 08:45:08;;;;;;;10.07;9.17;;;13.90;99.90;;;;;;5133008;28;20590;-70
2022/04/26 08:53:08;;;;;;;10.70;9.70;;;13.70;99.90;;;;;;5133420;28;20550;-70
2022/04/26 08:55:42;;;;;;;16.90;10.57;;;13.50;99.90;;;;;;5132517;28;20594;-70
2022/04/26 08:58:11;;;;;;;16.80;11.97;;;13.40;99.90;;;;;;5135033;27;20630;-71
2022/04/26 09:00:41;;;;;;;10.53;9.53;;;13.10;99.90;;;;;;5136378;27;20590;-71
2022/04/26 09:03:08;;;;;;;10.35;8.82;;;12.80;99.90;;;;;;5136943;27;20687;-70
2022/04/26 09:05:35;;;;;;;9.93;8.95;;;12.20;99.90;;;;;;5136775;27;20242;-71
2022/04/26 09:08:20;;;;;;;9.70;8.70;;;11.80;99.90;;;;;;5136778;27;20198;-71
2022/04/26 09:10:47;;;;;;;8.35;7.55;;;11.40;99.90;;;;;;5136738;27;20209;-70
2022/04/26 09:13:15;;;;;;;9.85;8.88;;;11.20;99.90;;;;;;5136852;27;20269;-71
2022/04/26 09:15:46;;;;;;;9.20;8.30;;;11.10;99.90;;;;;;5136600;27;20570;-70
2022/04/26 09:18:24;;;;;;;9.93;9.05;;;11.10;99.90;;;;;;5136625;27;20202;-71
2022/04/26 09:20:58;;;;;;;10.38;9.30;;;11.10;99.90;;;;;;5136331;27;20205;-71
2022/04/26 09:23:27;;;;;;;9.00;8.20;;;11.10;99.90;;;;;;5136681;27;20202;-71
2022/04/26 09:26:15;;;;;;;9.23;8.32;;;11.10;99.90;;;;;;5136848;27;20202;-70
2022/04/26 09:28:47;;;;;;;8.95;8.02;;;11.20;99.90;;;;;;5117879;27;20657;-70
2022/04/26 09:31:24;;;;;;;8.23;7.50;;;11.40;99.90;;;;;;5136776;27;20633;-70
2022/04/26 09:33:54;;;;;;;8.13;7.32;;;11.50;99.90;;;;;;5135722;27;20208;-70
2022/04/26 09:36:22;;;;;;;8.80;8.02;;;11.60;99.90;;;;;;5135895;27;20206;-71
2022/04/26 09:38:53;;;;;;;8.25;7.55;;;11.70;99.90;;;;;;5135826;27;20205;-70
2022/04/26 09:41:20;;;;;;;8.70;7.93;;;11.80;99.90;;;;;;5136406;27;20201;-71
2022/04/26 09:43:58;;;;;;;10.45;9.45;;;12.00;99.90;;;;;;5136526;27;20221;-71
2022/04/26 09:46:24;;;;;;;9.40;8.50;;;12.30;99.90;;;;;;5136436;27;20243;-70
2022/04/26 09:48:53;;;;;;;9.40;8.60;;;12.50;99.90;;;;;;5136332;27;20198;-70
2022/04/26 09:51:20;;;;;;;9.45;8.65;;;12.60;99.90;;;;;;5135248;27;20205;-70
2022/04/26 09:53:46;;;;;;;10.23;9.35;;;12.60;99.90;;;;;;5135739;27;20202;-71
2022/04/26 09:56:14;;;;;;;10.65;9.75;;;12.90;99.90;;;;;;5136031;27;20206;-71
2022/04/26 09:58:41;;;;;;;10.10;9.20;;;12.80;99.90;;;;;;5135970;27;20208;-71
2022/04/26 10:01:09;;;;;;;11.03;10.03;;;13.20;99.90;;;;;;5135734;27;20603;-71
2022/04/26 10:03:37;;;;;;;9.80;8.90;;;13.50;99.90;;;;;;5135329;27;20637;-71
2022/04/26 10:06:06;;;;;;;9.20;8.37;;;12.80;99.90;;;;;;5134916;27;20625;-73
2022/04/26 10:08:37;;;;;;;8.00;7.20;;;12.90;99.90;;;;;;5134709;27;20650;-72
2022/04/26 10:11:04;;;;;;;9.53;7.87;;;12.90;99.90;;;;;;5135501;27;20575;-72
2022/04/26 10:13:39;;;;;;;8.53;7.83;;;13.00;99.90;;;;;;5135185;27;20612;-73
2022/04/26 10:16:10;;;;;;;8.60;7.80;;;13.20;99.90;;;;;;5135378;27;20681;-72
2022/04/26 10:18:45;;;;;;;8.23;7.47;;;13.20;99.90;;;;;;5135379;27;20599;-73
2022/04/26 10:21:35;;;;;;;7.80;6.63;;;12.80;99.90;;;;;;5116681;27;20601;-72
2022/04/26 10:24:02;;;;;;;7.30;6.70;;;12.70;99.90;;;;;;5134518;27;20641;-72
2022/04/26 10:26:30;;;;;;;7.65;7.05;;;12.50;99.90;;;;;;5134342;27;20916;-73
2022/04/26 10:29:01;;;;;;;9.23;8.43;;;12.40;99.90;;;;;;5135082;27;20202;-72
2022/04/26 10:31:42;;;;;;;8.40;7.70;;;12.30;99.90;;;;;;5116680;27;20585;-72
2022/04/26 10:34:30;;;;;;;9.07;8.27;;;12.30;99.90;;;;;;5136024;27;20615;-72
2022/04/26 10:37:05;;;;;;;11.32;8.50;;;11.90;99.90;;;;;;5136854;27;20708;-72
2022/04/26 10:39:38;;;;;;;9.82;7.80;;;11.50;99.90;;;;;;5117593;27;20562;-72
2022/04/26 10:42:20;;;;;;;10.10;9.20;;;10.80;99.90;;;;;;5134932;27;20270;-72
2022/04/26 10:44:48;;;;;;;11.57;10.23;;;10.60;99.90;;;;;;5135207;27;20209;-72
2022/04/26 10:47:24;;;;;;;12.02;8.60;;;10.40;99.90;;;;;;5134844;27;20573;-72
2022/04/26 10:49:52;;;;;;;9.23;8.32;;;10.20;99.90;;;;;;5116139;27;20546;-73
2022/04/26 10:52:19;;;;;;;9.75;7.95;;;10.00;99.90;;;;;;5134960;27;20212;-71
2022/04/26 10:54:48;;;;;;;9.40;8.57;;;9.70;99.90;;;;;;5116826;27;20217;-73
2022/04/26 10:57:16;;;;;;;10.38;7.72;;;9.70;99.90;;;;;;5135294;27;20198;-71
2022/04/26 10:59:54;;;;;;;16.08;14.40;;;9.60;99.90;;;;;;5134453;27;20202;-71
2022/04/26 11:02:21;;;;;;;9.73;8.23;;;9.60;99.90;;;;;;5134096;27;20270;-71
2022/04/26 11:05:02;;;;;;;9.27;7.95;;;9.60;99.90;;;;;;5134299;27;20713;-73
2022/04/26 11:07:29;;;;;;;7.13;6.50;;;9.50;99.90;;;;;;5133890;27;20594;-71
2022/04/26 11:10:00;;;;;;;10.60;7.25;;;9.40;99.90;;;;;;5134268;27;20222;-72
2022/04/26 11:12:29;;;;;;;7.55;6.60;;;9.50;99.90;;;;;;5134115;27;20202;-71
2022/04/26 11:14:57;;;;;;;6.13;5.57;;;9.40;99.90;;;;;;5116390;27;20617;-72
2022/04/26 11:17:25;;;;;;;5.95;5.45;;;9.40;99.90;;;;;;5134669;27;20221;-72
2022/04/26 11:19:55;;;;;;;7.85;6.50;;;9.50;99.90;;;;;;5134489;27;20205;-72
2022/04/26 11:22:23;;;;;;;7.10;6.45;;;9.60;99.90;;;;;;5134181;27;20222;-72
2022/04/26 11:28:01;;;;;;;5.10;4.60;;;9.90;99.90;;;;;;5137110;27;20189;-72
2022/04/26 11:30:36;;;;;;;6.80;5.28;;;10.10;99.90;;;;;;5136290;27;20209;-72
2022/04/26 11:33:11;;;;;;;6.70;6.10;;;10.40;99.90;;;;;;5137023;27;20206;-72
2022/04/26 11:35:39;;;;;;;7.28;5.90;;;10.40;99.90;;;;;;5133851;27;20238;-72
2022/04/26 11:38:14;;;;;;;6.25;5.65;;;10.70;99.90;;;;;;5133663;27;20198;-72
2022/04/26 11:40:54;;;;;;;6.60;6.10;;;10.70;99.90;;;;;;5134282;27;20208;-72
2022/04/26 11:43:23;;;;;;;7.10;6.50;;;10.80;99.90;;;;;;5133451;27;20217;-72
2022/04/26 11:45:51;;;;;;;5.75;5.25;;;10.60;99.90;;;;;;5134466;27;20250;-72
2022/04/26 11:48:20;;;;;;;6.50;5.40;;;10.40;99.90;;;;;;5133855;27;20201;-72
2022/04/26 11:50:51;;;;;;;5.40;5.00;;;10.50;99.90;;;;;;5134015;27;20205;-72
2022/04/26 11:53:22;;;;;;;6.95;6.45;;;10.80;99.90;;;;;;5133964;28;20205;-72
2022/04/26 11:55:53;;;;;;;6.95;6.32;;;11.10;99.90;;;;;;5134175;28;20201;-72
2022/04/26 11:58:26;;;;;;;7.90;7.15;;;11.80;99.90;;;;;;5133450;28;20205;-72
2022/04/26 12:01:03;;;;;;;6.77;6.13;;;12.30;99.90;;;;;;5134265;28;20182;-72
2022/04/26 12:03:30;;;;;;;6.90;6.22;;;12.50;99.90;;;;;;5132940;28;20649;-72
2022/04/26 12:06:05;;;;;;;5.73;5.13;;;12.90;99.90;;;;;;5133863;27;20229;-72
2022/04/26 12:08:55;;;;;;;6.20;5.70;;;13.10;99.90;;;;;;5133404;28;20996;-72
2022/04/26 12:11:24;;;;;;;7.23;6.63;;;13.10;99.90;;;;;;5120979;28;20615;-72
2022/04/26 12:14:16;;;;;;;7.10;6.40;;;13.20;99.90;;;;;;5133299;28;20627;-72
2022/04/26 12:16:51;;;;;;;7.23;6.63;;;13.00;99.90;;;;;;5133164;28;20623;-72
2022/04/26 12:19:18;;;;;;;6.03;5.53;;;13.30;99.90;;;;;;5133368;28;20928;-72
2022/04/26 12:21:49;;;;;;;7.90;5.40;;;14.10;99.90;;;;;;5133292;28;20628;-72
2022/04/26 12:24:17;;;;;;;6.20;5.63;;;15.00;99.90;;;;;;5133387;28;20639;-72
2022/04/26 12:27:01;;;;;;;7.87;7.20;;;15.30;99.90;;;;;;5133158;28;20620;-72
2022/04/26 12:29:30;;;;;;;6.97;6.37;;;15.90;99.90;;;;;;5133018;28;20618;-73
2022/04/26 12:31:58;;;;;;;6.47;6.10;;;16.70;99.90;;;;;;5133453;27;20623;-72
2022/04/26 12:34:29;;;;;;;6.50;6.20;;;17.60;99.90;;;;;;5137448;27;20607;-72
2022/04/26 12:37:02;;;;;;;6.87;6.47;;;17.90;99.90;;;;;;5137328;27;20578;-72
2022/04/26 12:39:41;;;;;;;7.97;7.30;;;18.00;99.90;;;;;;5136451;27;20612;-72
2022/04/26 12:42:29;;;;;;;7.53;7.13;;;17.80;99.90;;;;;;5137316;27;20664;-72
2022/04/26 12:45:01;;;;;;;6.80;6.30;;;18.80;99.90;;;;;;5137140;27;20580;-72
2022/04/26 12:50:29;;;;;;;6.60;6.20;;;16.30;99.90;;;;;;5121864;27;21132;-72
2022/04/26 12:53:00;;;;;;;6.10;5.80;;;15.40;99.90;;;;;;5137402;27;20563;-72
2022/04/26 12:55:34;;;;;;;7.40;6.90;;;14.60;99.90;;;;;;5137322;27;20575;-71
2022/04/26 12:58:03;;;;;;;5.90;5.50;;;13.90;99.90;;;;;;5136420;27;20619;-73
2022/04/26 13:00:31;;;;;;;7.00;6.50;;;13.60;99.90;;;;;;5137100;27;20994;-71
2022/04/26 13:03:03;;;;;;;4.20;4.00;;;13.50;99.90;;;;;;5137068;27;20650;-72
2022/04/26 13:05:44;;;;;;;3.27;3.07;;;13.40;99.90;;;;;;5136408;27;21203;-71
2022/04/26 13:08:16;;;;;;;3.13;2.90;;;12.80;99.90;;;;;;5136827;27;20576;-71
2022/04/26 13:10:43;;;;;;;3.30;3.10;;;12.30;99.90;;;;;;5137114;27;20575;-71
2022/04/26 13:13:11;;;;;;;3.17;2.97;;;12.20;99.90;;;;;;5135984;27;21185;-72
2022/04/26 13:15:38;;;;;;;3.33;3.13;;;12.20;99.90;;;;;;5136918;27;20945;-72
2022/04/26 13:18:05;;;;;;;3.40;3.20;;;12.40;99.90;;;;;;5136496;27;21149;-72
2022/04/26 13:20:32;;;;;;;3.80;3.50;;;12.50;99.90;;;;;;5136523;27;20607;-72
2022/04/26 13:22:59;;;;;;;3.37;3.17;;;12.50;99.90;;;;;;5136898;27;20662;-72
2022/04/26 13:25:26;;;;;;;4.67;4.27;;;12.20;99.90;;;;;;5136171;27;20594;-72
2022/04/26 13:27:53;;;;;;;3.90;3.60;;;12.40;99.90;;;;;;5137696;27;20622;-72
2022/04/26 13:30:19;;;;;;;3.33;3.13;;;12.40;99.90;;;;;;5137379;27;20602;-72
2022/04/26 13:32:46;;;;;;;3.30;3.10;;;12.30;99.90;;;;;;5136485;27;20677;-72
2022/04/26 13:35:12;;;;;;;3.20;3.00;;;12.40;99.90;;;;;;5136757;27;20660;-72
2022/04/26 13:37:39;;;;;;;3.40;3.20;;;12.80;99.90;;;;;;5136490;27;20649;-72
2022/04/26 13:40:07;;;;;;;3.03;2.83;;;13.40;99.90;;;;;;5136513;27;21222;-72
2022/04/26 13:42:35;;;;;;;2.90;2.70;;;13.50;99.90;;;;;;5136145;27;20615;-73
2022/04/26 13:45:03;;;;;;;3.47;3.37;;;14.80;99.90;;;;;;5136306;27;20611;-72
2022/04/26 13:47:29;;;;;;;4.60;4.40;;;15.50;99.90;;;;;;5136441;27;20608;-73
2022/04/26 13:49:56;;;;;;;4.80;4.50;;;16.60;99.90;;;;;;5136024;27;20603;-73
2022/04/26 13:52:23;;;;;;;5.17;4.77;;;17.10;99.90;;;;;;5135550;27;20975;-73
2022/04/26 13:54:50;;;;;;;5.63;4.97;;;14.70;99.90;;;;;;5136125;27;20615;-72
2022/04/26 13:57:17;;;;;;;5.30;5.03;;;13.90;99.90;;;;;;5136127;27;20618;-72
2022/04/26 13:59:44;;;;;;;5.20;4.90;;;14.20;99.90;;;;;;5135729;27;20628;-72
2022/04/26 14:02:11;;;;;;;4.43;4.23;;;14.00;99.90;;;;;;5135403;27;20626;-72
2022/04/26 14:04:38;;;;;;;4.90;4.60;;;13.50;99.90;;;;;;5135213;27;20678;-72
2022/04/26 14:07:05;;;;;;;4.53;4.30;;;13.90;99.90;;;;;;5135693;27;20632;-72
2022/04/26 14:09:32;;;;;;;4.03;3.80;;;13.70;99.90;;;;;;5135053;27;20655;-72
2022/04/26 14:11:59;;;;;;;3.77;3.57;;;13.10;99.90;;;;;;5135812;27;20612;-72
2022/04/26 14:22:43;;;;;;;4.00;3.80;;;12.60;99.90;;;;;;5135181;27;21107;-72
2022/04/26 14:25:11;;;;;;;4.73;4.10;;;12.20;99.90;;;;;;5135286;27;20596;-72
2022/04/26 14:27:39;;;;;;;4.90;4.50;;;12.40;99.90;;;;;;5134732;27;21157;-72
2022/04/26 14:30:08;;;;;;;4.90;4.50;;;12.60;99.90;;;;;;5135292;27;21128;-72
2022/04/26 14:32:35;;;;;;;12.43;6.67;;;12.80;99.90;;;;;;5135787;27;20607;-72
2022/04/26 14:35:02;;;;;;;2.50;2.40;;;12.90;99.90;;;;;;5135434;27;20614;-72
2022/04/26 14:37:29;;;;;;;2.53;2.13;;;12.90;99.90;;;;;;5135522;27;20611;-72
2022/04/26 14:39:56;;;;;;;4.40;3.00;;;13.00;99.90;;;;;;5135574;27;20608;-72
2022/04/26 14:42:22;;;;;;;3.10;2.90;;;12.50;99.90;;;;;;5135192;27;20586;-72
2022/04/26 14:44:48;;;;;;;3.00;2.80;;;12.20;99.90;;;;;;5134855;27;20659;-72
2022/04/26 14:47:15;;;;;;;2.80;2.60;;;12.20;99.90;;;;;;5134792;27;21152;-73
2022/04/26 14:49:42;;;;;;;2.60;2.50;;;12.40;99.90;;;;;;5134861;27;20583;-72
2022/04/26 14:52:08;;;;;;;2.50;2.30;;;12.40;99.90;;;;;;5134463;27;20586;-72
2022/04/26 14:54:35;;;;;;;6.05;2.70;;;12.20;99.90;;;;;;5135172;27;20221;-72
2022/04/26 14:57:04;;;;;;;5.07;2.22;;;12.10;99.90;;;;;;5116367;27;20566;-72
2022/04/26 14:59:33;;;;;;;2.67;2.47;;;11.90;99.90;;;;;;5133887;27;20206;-72
2022/04/26 15:02:00;;;;;;;3.25;2.40;;;11.80;99.90;;;;;;5134156;27;20209;-72
2022/04/26 15:04:26;;;;;;;2.30;2.20;;;11.70;99.90;;;;;;5134636;27;20222;-72
2022/04/26 15:06:53;;;;;;;2.40;2.30;;;11.40;99.90;;;;;;5134042;27;20228;-72
2022/04/26 15:17:35;;;;;;;3.97;3.17;;;11.20;99.90;;;;;;5135177;27;20216;-72
2022/04/26 15:20:03;;;;;;;2.35;2.25;;;11.30;99.90;;;;;;5134743;27;20559;-72
2022/04/26 15:22:30;;;;;;;3.70;3.40;;;11.30;99.90;;;;;;5115952;27;20206;-73
2022/04/26 15:24:57;;;;;;;6.45;2.80;;;11.20;99.90;;;;;;5134111;27;20221;-72
2022/04/26 15:27:49;;;;;;;3.50;3.20;;;11.10;99.90;;;;;;5136118;27;20722;-73
2022/04/26 15:30:43;;;;;;;3.08;2.88;;;11.60;99.90;;;;;;5102292;27;20209;-73
2022/04/26 15:33:38;;;;;;;3.50;3.30;;;12.40;99.90;;;;;;5061800;27;20198;-73
2022/04/26 15:36:18;;;;;;;;;;;;;;;;;;;;;
2022/04/26 15:38:59;;;;;;;3.50;3.30;;;12.00;99.90;;;;;;5127797;27;20612;-73
2022/04/26 15:41:34;;;;;;;3.03;2.83;;;11.70;99.90;;;;;;5115962;27;20202;-72
2022/04/26 15:44:03;;;;;;;3.55;3.25;;;11.50;99.90;;;;;;5134930;27;20220;-73
2022/04/26 15:46:29;;;;;;;3.97;3.67;;;11.50;99.90;;;;;;5133911;27;20234;-72
2022/04/26 15:48:56;;;;;;;4.35;4.05;;;11.50;99.90;;;;;;5134012;27;20649;-73
2022/04/26 15:51:24;;;;;;;5.07;3.95;;;11.60;99.90;;;;;;5114981;28;20198;-73
2022/04/26 15:53:51;;;;;;;4.53;4.20;;;11.50;99.90;;;;;;5133220;27;20701;-73
2022/04/26 15:56:18;;;;;;;4.40;4.10;;;11.50;99.90;;;;;;5133885;28;20611;-73
2022/04/26 15:58:44;;;;;;;2.88;2.50;;;11.50;99.90;;;;;;5133513;28;20263;-73
2022/04/26 16:01:12;;;;;;;4.55;3.60;;;11.30;99.90;;;;;;5133472;28;20201;-73
2022/04/26 16:03:38;;;;;;;7.07;3.88;;;11.20;99.90;;;;;;5132810;28;20214;-72
2022/04/26 16:06:05;;;;;;;4.20;3.90;;;11.00;99.90;;;;;;5133895;27;20266;-73
2022/04/26 16:08:35;;;;;;;5.65;4.47;;;11.00;99.90;;;;;;5136677;27;20226;-73
2022/04/26 16:22:16;;;;;;;4.38;3.75;;;10.80;99.90;;;;;;5139756;27;20276;-73
2022/04/26 16:24:42;;;;;;;5.18;4.75;;;10.50;99.90;;;;;;5138528;27;20213;-73
2022/04/26 16:27:09;;;;;;;5.93;3.90;;;10.40;99.90;;;;;;5140172;27;20257;-73
2022/04/26 16:29:35;;;;;;;5.00;4.47;;;10.20;99.90;;;;;;5141128;27;20292;-73
2022/04/26 16:32:02;;;;;;;7.95;4.78;;;10.20;99.90;;;;;;5141421;27;20712;-74
2022/04/26 16:34:38;;;;;;;23.40;18.52;;;10.20;99.90;;;;;;5121194;27;20182;-71
2022/04/26 16:37:04;;;;;;;25.13;18.92;;;10.20;99.90;;;;;;5136849;27;20205;-72
2022/04/26 16:39:31;;;;;;;8.55;7.55;;;10.20;99.90;;;;;;5137530;27;20273;-72
2022/04/26 16:41:58;;;;;;;5.03;4.72;;;10.20;99.90;;;;;;5137615;27;20551;-72
2022/04/26 16:44:24;;;;;;;5.72;5.22;;;10.20;99.90;;;;;;5136664;27;20563;-72
2022/04/26 16:46:51;;;;;;;4.40;4.00;;;10.20;99.90;;;;;;5137694;27;20205;-72
2022/04/26 16:49:17;;;;;;;4.50;4.00;;;10.20;99.90;;;;;;5137558;27;20273;-72
2022/04/26 16:51:44;;;;;;;4.60;4.18;;;10.00;99.90;;;;;;5137371;27;20209;-72
2022/04/26 16:54:12;;;;;;;6.47;5.88;;;10.00;99.90;;;;;;5137432;27;20201;-72
2022/04/26 16:56:38;;;;;;;5.75;4.95;;;10.10;99.90;;;;;;5138944;27;20206;-72
2022/04/26 16:59:05;;;;;;;3.70;3.47;;;10.20;99.90;;;;;;5137238;27;20205;-72
2022/04/26 17:01:31;;;;;;;4.75;4.43;;;10.40;99.90;;;;;;5137039;27;20201;-72
2022/04/26 17:03:58;;;;;;;4.40;4.00;;;10.40;99.90;;;;;;5137149;27;20214;-72
2022/04/26 17:06:25;;;;;;;4.07;3.78;;;10.40;99.90;;;;;;5136191;27;20218;-72
2022/04/26 17:08:51;;;;;;;4.68;4.28;;;10.40;99.90;;;;;;5137049;27;20236;-72
2022/04/26 17:14:02;;;;;;;4.30;4.05;;;10.50;99.90;;;;;;5122176;27;20201;-72
2022/04/26 17:16:29;;;;;;;4.82;4.43;;;10.50;99.90;;;;;;5137358;27;20277;-72
2022/04/26 17:18:55;;;;;;;5.32;4.90;;;10.50;99.90;;;;;;5136897;27;20205;-72